Time;durP1;ratioP1;P1;durP2;ratioP2;P2;SDS_P1;SDS_P2;PMS_P1;PMS_P2;Temp;Humidity;BMP_temperature;BMP_pressure;BME280_temperature;BME280_humidity;BME280_pressure;Samples;Min_cycle;Max_cycle;Signal;HPM_P1;HPM_P2
2022/12/22 03:26:18;;;;;;;66.43;34.90;;;;;;;;;;2112364;28;20097;-42
2022/12/22 03:27:18;;;;;;;62.40;35.45;;;;;;;;;;2112758;28;20139;-43
2022/12/22 03:28:20;;;;;;;57.78;29.75;;;;;;;;;;2112455;28;20484;-42
2022/12/22 03:29:21;;;;;;;;;;;;;;;;;;2112837;28;20047;-42
2022/12/22 03:30:22;;;;;;;61.55;30.27;;;;;;;;;;2112485;28;19970;-42
2022/12/22 03:31:23;;;;;;;60.42;33.88;;;;;;;;;;2112412;28;20040;-42
2022/12/22 03:32:25;;;;;;;61.25;35.67;;;;;;;;;;2112403;28;20425;-42
2022/12/22 03:33:26;;;;;;;61.55;34.47;;;;;;;;;;2112222;28;20051;-43
2022/12/22 03:34:27;;;;;;;59.97;32.63;;;;;;;;;;2112427;28;20557;-43
2022/12/22 03:35:29;;;;;;;56.00;32.35;;;;;;;;;;2112385;28;20342;-43
2022/12/22 03:36:30;;;;;;;54.85;34.42;;;;;;;;;;2112308;28;20519;-42
2022/12/22 03:37:31;;;;;;;54.20;28.58;;;;;;;;;;2112342;28;20412;-43
2022/12/22 03:38:32;;;;;;;55.05;33.10;;;;;;;;;;2112508;28;20072;-42
2022/12/22 03:39:33;;;;;;;59.05;32.88;;;;;;;;;;2112375;28;20059;-43
2022/12/22 03:40:35;;;;;;;54.73;32.60;;;;;;;;;;2112288;28;20048;-42
2022/12/22 03:46:53;;;;;;;60.10;34.70;;;;;;;;;;2101555;28;20374;-42
2022/12/22 03:47:54;;;;;;;58.17;31.55;;;;;;;;;;2098316;28;20576;-42
2022/12/22 03:49:11;;;;;;;58.38;33.03;;;;;;;;;;2098468;28;20056;-44
2022/12/22 03:50:12;;;;;;;57.38;31.30;;;;;;;;;;2098451;28;20045;-46
2022/12/22 03:51:14;;;;;;;56.00;24.83;;;;;;;;;;2098457;28;20052;-45
2022/12/22 03:52:15;;;;;;;57.45;32.83;;;;;;;;;;2098301;28;20390;-45
2022/12/22 03:53:16;;;;;;;54.60;30.87;;;;;;;;;;2098356;28;20198;-45
2022/12/22 03:54:18;;;;;;;55.83;31.92;;;;;;;;;;2098336;28;20217;-46
2022/12/22 03:55:20;;;;;;;51.65;29.63;;;;;;;;;;2098286;28;20052;-45
2022/12/22 03:56:21;;;;;;;54.72;30.63;;;;;;;;;;2098220;28;20055;-44
2022/12/22 03:57:22;;;;;;;56.40;32.53;;;;;;;;;;2098389;28;20119;-45
2022/12/22 03:58:23;;;;;;;51.95;29.27;;;;;;;;;;2098239;28;20048;-44
2022/12/22 03:59:24;;;;;;;50.67;25.98;;;;;;;;;;2098390;28;20049;-45
2022/12/22 04:00:25;;;;;;;54.67;32.15;;;;;;;;;;2098143;28;20041;-45
2022/12/22 04:01:26;;;;;;;53.22;31.83;;;;;;;;;;2098400;28;20051;-44
2022/12/22 04:02:27;;;;;;;53.35;32.63;;;;;;;;;;2098348;28;20105;-45
2022/12/22 04:03:28;;;;;;;54.05;27.73;;;;;;;;;;2098365;28;20554;-41
2022/12/22 04:04:29;;;;;;;52.92;30.90;;;;;;;;;;2098162;28;20075;-42
2022/12/22 04:05:30;;;;;;;53.57;31.60;;;;;;;;;;2098077;28;20045;-42
2022/12/22 04:06:32;;;;;;;55.45;31.52;;;;;;;;;;2098485;28;20075;-42
2022/12/22 04:07:33;;;;;;;50.88;31.10;;;;;;;;;;2098170;28;20044;-42
2022/12/22 04:08:34;;;;;;;48.83;30.35;;;;;;;;;;2098369;28;20055;-42
2022/12/22 04:12:52;;;;;;;50.27;28.03;;;;;;;;;;2098378;28;20444;-41
2022/12/22 04:13:34;;;;;;;53.25;25.50;;;;;;;;;;2084439;28;20049;-42
2022/12/22 04:14:35;;;;;;;54.03;31.57;;;;;;;;;;2098210;28;20140;-42
2022/12/22 04:15:36;;;;;;;50.05;28.05;;;;;;;;;;2098170;28;20059;-46
2022/12/22 04:16:37;;;;;;;58.53;32.58;;;;;;;;;;2098496;28;20075;-45
2022/12/22 04:17:38;;;;;;;65.43;33.15;;;;;;;;;;2098448;28;20055;-42
2022/12/22 04:18:39;;;;;;;59.28;33.63;;;;;;;;;;2098159;28;20063;-45
2022/12/22 04:19:40;;;;;;;52.45;33.42;;;;;;;;;;2098086;28;20504;-47
2022/12/22 04:20:41;;;;;;;51.47;26.38;;;;;;;;;;2098195;28;20083;-44
2022/12/22 04:21:43;;;;;;;49.70;31.55;;;;;;;;;;2098351;28;20048;-45
2022/12/22 04:22:44;;;;;;;51.17;26.60;;;;;;;;;;2098592;28;20048;-45
2022/12/22 04:23:45;;;;;;;58.05;33.92;;;;;;;;;;2098659;28;20052;-41
2022/12/22 04:24:46;;;;;;;58.85;32.90;;;;;;;;;;2098362;28;20485;-44
2022/12/22 04:25:47;;;;;;;50.15;30.75;;;;;;;;;;2098011;28;20051;-45
2022/12/22 04:26:48;;;;;;;55.33;32.30;;;;;;;;;;2098164;28;20076;-45
2022/12/22 04:27:49;;;;;;;60.65;33.55;;;;;;;;;;2098001;28;20182;-44
2022/12/22 04:28:51;;;;;;;52.05;30.58;;;;;;;;;;2098455;28;20059;-41
2022/12/22 04:29:52;;;;;;;56.42;33.70;;;;;;;;;;2098157;28;20049;-41
2022/12/22 04:30:53;;;;;;;58.83;30.90;;;;;;;;;;2098109;28;20477;-41
2022/12/22 04:31:54;;;;;;;53.80;32.38;;;;;;;;;;2098425;28;20049;-41
2022/12/22 04:32:55;;;;;;;51.78;30.40;;;;;;;;;;2098155;28;20076;-41
2022/12/22 04:33:56;;;;;;;52.90;31.65;;;;;;;;;;2098075;28;20052;-41
2022/12/22 04:34:57;;;;;;;58.10;28.87;;;;;;;;;;2098021;28;20040;-41
2022/12/22 04:35:58;;;;;;;60.97;33.40;;;;;;;;;;2098014;28;20073;-41
2022/12/22 04:37:00;;;;;;;58.22;26.23;;;;;;;;;;2098128;28;20476;-41
2022/12/22 04:38:17;;;;;;;53.65;27.65;;;;;;;;;;2098208;28;20053;-41
2022/12/22 04:39:18;;;;;;;59.97;35.17;;;;;;;;;;2098036;28;20060;-41
2022/12/22 04:40:19;;;;;;;62.28;35.42;;;;;;;;;;2097811;28;20052;-41
2022/12/22 04:41:20;;;;;;;59.88;34.35;;;;;;;;;;2097694;28;20135;-41
2022/12/22 04:42:21;;;;;;;60.88;32.85;;;;;;;;;;2098123;28;20045;-41
2022/12/22 04:43:22;;;;;;;59.97;29.33;;;;;;;;;;2097950;28;20725;-41
2022/12/22 04:44:23;;;;;;;59.20;34.85;;;;;;;;;;2097962;28;20049;-41
2022/12/22 04:45:24;;;;;;;60.15;34.58;;;;;;;;;;2097854;28;20076;-45
2022/12/22 04:46:25;;;;;;;62.38;33.15;;;;;;;;;;2098013;28;20394;-45
2022/12/22 04:47:26;;;;;;;63.80;35.80;;;;;;;;;;2098010;28;20135;-46
2022/12/22 04:48:28;;;;;;;51.78;25.50;;;;;;;;;;2098131;28;20542;-45
2022/12/22 04:49:29;;;;;;;54.35;32.38;;;;;;;;;;2097783;28;20045;-46
2022/12/22 04:50:30;;;;;;;57.95;31.38;;;;;;;;;;2097938;28;20079;-45
2022/12/22 04:51:31;;;;;;;59.70;33.97;;;;;;;;;;2098353;28;20072;-41
2022/12/22 04:52:33;;;;;;;57.95;34.42;;;;;;;;;;2097773;28;20094;-42
2022/12/22 04:53:34;;;;;;;62.65;35.90;;;;;;;;;;2098052;28;20060;-42
2022/12/22 04:54:35;;;;;;;60.35;34.92;;;;;;;;;;2097896;28;20056;-42
2022/12/22 04:55:36;;;;;;;54.03;31.37;;;;;;;;;;2097876;28;20504;-42
2022/12/22 04:56:37;;;;;;;56.67;34.45;;;;;;;;;;2097843;28;20055;-41
2022/12/22 04:57:38;;;;;;;56.33;31.73;;;;;;;;;;2097968;28;20055;-41
2022/12/22 04:58:41;;;;;;;60.70;34.10;;;;;;;;;;2097101;28;20056;-41
2022/12/22 04:59:42;;;;;;;58.13;34.37;;;;;;;;;;2097528;28;20415;-41
2022/12/22 05:00:43;;;;;;;59.53;34.28;;;;;;;;;;2097679;28;20044;-41
2022/12/22 05:01:44;;;;;;;57.90;32.00;;;;;;;;;;2097972;28;20075;-41
2022/12/22 05:02:46;;;;;;;56.65;31.80;;;;;;;;;;2097854;28;20059;-41
2022/12/22 05:03:47;;;;;;;48.38;29.65;;;;;;;;;;2097802;28;20056;-41
2022/12/22 05:04:48;;;;;;;56.47;30.60;;;;;;;;;;2097963;28;20049;-41
2022/12/22 05:05:49;;;;;;;56.25;34.17;;;;;;;;;;2097676;28;20166;-41
2022/12/22 05:06:50;;;;;;;52.78;28.48;;;;;;;;;;2097816;28;20489;-41
2022/12/22 05:07:52;;;;;;;54.67;32.30;;;;;;;;;;2097726;28;20489;-42
2022/12/22 05:08:53;;;;;;;56.63;33.20;;;;;;;;;;2098001;28;20479;-41
2022/12/22 05:09:54;;;;;;;59.50;34.67;;;;;;;;;;2098067;28;20044;-41
2022/12/22 05:10:55;;;;;;;59.03;34.35;;;;;;;;;;2097964;28;20111;-46
2022/12/22 05:11:56;;;;;;;57.17;34.22;;;;;;;;;;2098008;28;20408;-45
2022/12/22 05:12:57;;;;;;;56.75;32.25;;;;;;;;;;2097722;28;20083;-44
2022/12/22 05:13:58;;;;;;;52.72;31.45;;;;;;;;;;2097861;28;20040;-41
2022/12/22 05:15:07;;;;;;;58.50;32.78;;;;;;;;;;2097808;28;20193;-41
2022/12/22 05:16:10;;;;;;;50.30;26.65;;;;;;;;;;2097983;28;20044;-45
2022/12/22 05:17:11;;;;;;;60.67;34.28;;;;;;;;;;2097629;28;20045;-44
2022/12/22 05:18:12;;;;;;;54.00;33.93;;;;;;;;;;2097953;28;20401;-42
2022/12/22 05:19:13;;;;;;;57.45;33.67;;;;;;;;;;2098004;28;20048;-45
2022/12/22 05:20:15;;;;;;;51.05;26.48;;;;;;;;;;2097979;28;20056;-46
2022/12/22 05:21:17;;;;;;;53.65;30.88;;;;;;;;;;2097775;28;20044;-45
2022/12/22 05:22:19;;;;;;;56.53;31.45;;;;;;;;;;2097830;28;20071;-45
2022/12/22 05:23:20;;;;;;;54.10;31.00;;;;;;;;;;2097848;28;20082;-47
2022/12/22 05:24:21;;;;;;;54.58;31.38;;;;;;;;;;2097861;28;20050;-45
2022/12/22 05:25:22;;;;;;;53.67;27.17;;;;;;;;;;2097666;28;20052;-45
2022/12/22 05:26:23;;;;;;;58.25;32.13;;;;;;;;;;2097490;28;20045;-46
2022/12/22 05:27:24;;;;;;;52.20;30.77;;;;;;;;;;2097900;28;20052;-42
2022/12/22 05:28:25;;;;;;;58.85;33.15;;;;;;;;;;2097696;28;20076;-42
2022/12/22 05:29:26;;;;;;;54.80;30.05;;;;;;;;;;2097768;28;20044;-42
2022/12/22 05:30:27;;;;;;;56.65;33.45;;;;;;;;;;2097617;28;20067;-42
2022/12/22 05:31:28;;;;;;;53.80;29.48;;;;;;;;;;2097731;28;20055;-42
2022/12/22 05:32:31;;;;;;;58.13;32.63;;;;;;;;;;2097748;28;20048;-42
2022/12/22 05:33:32;;;;;;;51.50;28.92;;;;;;;;;;2098133;28;20308;-42
2022/12/22 05:34:34;;;;;;;56.90;31.57;;;;;;;;;;2097835;28;20041;-46
2022/12/22 05:35:35;;;;;;;53.25;31.85;;;;;;;;;;2097773;28;20049;-45
2022/12/22 05:36:36;;;;;;;53.72;31.55;;;;;;;;;;2097530;28;20053;-47
2022/12/22 05:37:37;;;;;;;53.40;28.20;;;;;;;;;;2097573;28;20105;-46
2022/12/22 05:38:39;;;;;;;52.20;30.50;;;;;;;;;;2097610;28;20052;-45
2022/12/22 05:39:40;;;;;;;;;;;;;;;;;;2098052;28;20052;-47
2022/12/22 05:40:41;;;;;;;53.13;26.35;;;;;;;;;;2097624;28;19920;-45
2022/12/22 05:41:42;;;;;;;53.35;31.65;;;;;;;;;;2098021;28;20048;-42
2022/12/22 05:42:43;;;;;;;51.23;30.93;;;;;;;;;;2097846;28;20056;-42
2022/12/22 05:43:44;;;;;;;54.20;30.90;;;;;;;;;;2097627;28;20109;-41
2022/12/22 05:44:45;;;;;;;46.45;27.85;;;;;;;;;;2097634;28;20582;-41
2022/12/22 05:45:46;;;;;;;47.50;24.65;;;;;;;;;;2097131;28;20044;-41
2022/12/22 05:46:48;;;;;;;51.60;30.80;;;;;;;;;;2097579;28;20045;-41
2022/12/22 05:47:51;;;;;;;53.22;31.88;;;;;;;;;;2097603;28;20049;-41
2022/12/22 05:48:51;;;;;;;56.45;31.83;;;;;;;;;;2097468;28;20111;-41
2022/12/22 05:49:52;;;;;;;54.10;31.40;;;;;;;;;;2097921;28;20547;-45
2022/12/22 05:50:53;;;;;;;91.80;48.63;;;;;;;;;;2097407;28;20055;-45
2022/12/22 05:51:55;;;;;;;84.93;44.83;;;;;;;;;;2098485;28;20052;-45
2022/12/22 05:52:56;;;;;;;107.85;54.22;;;;;;;;;;2097903;28;20489;-41
2022/12/22 05:53:58;;;;;;;102.97;57.28;;;;;;;;;;2097666;28;20079;-41
2022/12/22 05:54:59;;;;;;;71.40;43.20;;;;;;;;;;2097478;28;20404;-41
2022/12/22 05:56:00;;;;;;;52.80;31.77;;;;;;;;;;2097542;28;20075;-41
2022/12/22 05:57:01;;;;;;;59.17;30.65;;;;;;;;;;2097533;28;20051;-41
2022/12/22 05:58:02;;;;;;;54.85;32.55;;;;;;;;;;2097689;28;20473;-41
2022/12/22 05:59:04;;;;;;;53.63;31.42;;;;;;;;;;2097574;28;20051;-45
2022/12/22 06:00:07;;;;;;;54.27;31.87;;;;;;;;;;2097448;28;20484;-46
2022/12/22 06:01:08;;;;;;;54.83;31.48;;;;;;;;;;2097647;28;20044;-40
2022/12/22 06:02:10;;;;;;;49.73;31.20;;;;;;;;;;2097460;28;20041;-40
2022/12/22 06:03:11;;;;;;;55.97;31.80;;;;;;;;;;2097473;28;20482;-41
2022/12/22 06:04:12;;;;;;;52.33;31.08;;;;;;;;;;2097647;28;20037;-40
2022/12/22 06:05:13;;;;;;;52.90;30.17;;;;;;;;;;2097766;28;20052;-44
2022/12/22 06:06:14;;;;;;;49.33;29.45;;;;;;;;;;2097323;28;20301;-44
2022/12/22 06:07:15;;;;;;;54.70;31.80;;;;;;;;;;2097379;28;20511;-46
2022/12/22 06:08:17;;;;;;;54.50;32.03;;;;;;;;;;2097341;28;20485;-46
2022/12/22 06:09:19;;;;;;;49.78;31.15;;;;;;;;;;2097480;28;20044;-45
2022/12/22 06:10:19;;;;;;;53.53;32.33;;;;;;;;;;2097035;28;20404;-46
2022/12/22 06:11:21;;;;;;;49.75;30.63;;;;;;;;;;2097821;28;20077;-46
2022/12/22 06:12:22;;;;;;;52.20;28.52;;;;;;;;;;2097810;28;20048;-41
2022/12/22 06:13:23;;;;;;;54.38;33.17;;;;;;;;;;2097798;28;20532;-42
2022/12/22 06:14:24;;;;;;;55.53;28.15;;;;;;;;;;2097438;28;20057;-41
2022/12/22 06:15:25;;;;;;;56.28;31.98;;;;;;;;;;2097582;28;20084;-42
2022/12/22 06:16:26;;;;;;;59.45;32.90;;;;;;;;;;2097665;28;20454;-42
2022/12/22 06:17:27;;;;;;;54.73;34.47;;;;;;;;;;2097384;28;20083;-41
2022/12/22 06:18:28;;;;;;;54.00;32.30;;;;;;;;;;2097318;28;20443;-42
2022/12/22 06:19:29;;;;;;;53.45;32.40;;;;;;;;;;2097516;28;20178;-41
2022/12/22 06:20:30;;;;;;;59.00;33.67;;;;;;;;;;2097741;28;20041;-45
2022/12/22 06:21:31;;;;;;;57.80;33.00;;;;;;;;;;2097916;28;20436;-46
2022/12/22 06:22:32;;;;;;;56.53;32.25;;;;;;;;;;2097506;28;20553;-46
2022/12/22 06:23:33;;;;;;;51.10;31.97;;;;;;;;;;2097522;28;20075;-41
2022/12/22 06:24:35;;;;;;;56.05;32.70;;;;;;;;;;2097325;28;20052;-42
2022/12/22 06:25:36;;;;;;;52.83;32.00;;;;;;;;;;2097697;28;20048;-46
2022/12/22 06:26:37;;;;;;;55.15;31.73;;;;;;;;;;2097412;28;20052;-46
2022/12/22 06:27:38;;;;;;;55.72;30.40;;;;;;;;;;2097711;28;20052;-47
2022/12/22 06:28:39;;;;;;;50.67;29.20;;;;;;;;;;2097396;28;20052;-44
2022/12/22 06:29:40;;;;;;;58.42;34.58;;;;;;;;;;2097611;28;20127;-41
2022/12/22 06:30:41;;;;;;;57.80;35.00;;;;;;;;;;2097382;28;20285;-41
2022/12/22 06:31:42;;;;;;;59.03;33.45;;;;;;;;;;2097663;28;20071;-41
2022/12/22 06:32:43;;;;;;;60.25;34.78;;;;;;;;;;2097340;28;20053;-42
2022/12/22 06:33:44;;;;;;;84.50;33.28;;;;;;;;;;2097009;28;20040;-42
2022/12/22 06:34:46;;;;;;;66.95;37.65;;;;;;;;;;2097404;28;20109;-41
2022/12/22 06:35:47;;;;;;;73.03;31.95;;;;;;;;;;2097379;28;20072;-41
2022/12/22 06:36:54;;;;;;;71.80;39.72;;;;;;;;;;2097261;28;20473;-42
2022/12/22 06:37:55;;;;;;;65.95;36.90;;;;;;;;;;2097438;28;20059;-41
2022/12/22 06:38:56;;;;;;;58.65;30.27;;;;;;;;;;2097360;28;20096;-41
2022/12/22 06:39:58;;;;;;;68.95;36.47;;;;;;;;;;2097304;28;20059;-41
2022/12/22 06:40:59;;;;;;;62.58;35.58;;;;;;;;;;2097322;28;20041;-42
2022/12/22 06:43:19;;;;;;;52.40;28.98;;;;;;;;;;2097378;28;20056;-45
2022/12/22 06:44:20;;;;;;;55.33;33.93;;;;;;;;;;2097443;28;20091;-45
2022/12/22 06:45:21;;;;;;;59.53;33.93;;;;;;;;;;2097060;28;20072;-45
2022/12/22 06:46:22;;;;;;;59.30;34.20;;;;;;;;;;2097282;28;20051;-45
2022/12/22 06:47:23;;;;;;;60.95;33.88;;;;;;;;;;2097157;28;20055;-45
2022/12/22 06:48:24;;;;;;;58.40;32.55;;;;;;;;;;2097427;28;20048;-41
2022/12/22 06:49:25;;;;;;;56.42;32.70;;;;;;;;;;2097232;28;20144;-41
2022/12/22 06:50:26;;;;;;;56.20;34.08;;;;;;;;;;2097436;28;20056;-46
2022/12/22 06:51:27;;;;;;;62.45;35.25;;;;;;;;;;2097090;28;20066;-45
2022/12/22 06:52:28;;;;;;;57.63;34.50;;;;;;;;;;2097358;28;20044;-42
2022/12/22 06:53:29;;;;;;;54.80;28.13;;;;;;;;;;2097294;28;20181;-42
2022/12/22 06:54:30;;;;;;;59.05;34.33;;;;;;;;;;2097386;28;20049;-41
2022/12/22 06:55:32;;;;;;;63.50;35.17;;;;;;;;;;2097089;28;20567;-41
2022/12/22 06:56:33;;;;;;;60.70;33.30;;;;;;;;;;2097643;28;20102;-45
2022/12/22 06:57:34;;;;;;;57.22;28.15;;;;;;;;;;2097220;28;20143;-46
2022/12/22 06:58:35;;;;;;;60.75;34.05;;;;;;;;;;2097510;28;20051;-43
2022/12/22 06:59:36;;;;;;;55.22;32.45;;;;;;;;;;2097309;28;20044;-41
2022/12/22 07:00:37;;;;;;;56.72;34.67;;;;;;;;;;2097393;28;20149;-41
2022/12/22 07:01:38;;;;;;;61.45;36.47;;;;;;;;;;2097312;28;20052;-46
2022/12/22 07:02:40;;;;;;;64.03;37.95;;;;;;;;;;2097394;28;20052;-41
2022/12/22 07:03:41;;;;;;;64.30;34.38;;;;;;;;;;2097094;28;20432;-41
2022/12/22 07:04:42;;;;;;;69.50;38.67;;;;;;;;;;2097090;28;20444;-41
2022/12/22 07:05:43;;;;;;;66.97;37.38;;;;;;;;;;2097320;28;20049;-45
2022/12/22 07:06:44;;;;;;;65.03;38.08;;;;;;;;;;2097342;28;20049;-41
2022/12/22 07:07:45;;;;;;;68.90;38.97;;;;;;;;;;2097055;28;20048;-41
2022/12/22 07:08:46;;;;;;;67.97;36.70;;;;;;;;;;2097073;28;20485;-41
2022/12/22 07:09:47;;;;;;;69.80;42.40;;;;;;;;;;2097041;28;20045;-41
2022/12/22 07:10:58;;;;;;;66.22;39.47;;;;;;;;;;2097007;28;20416;-42
2022/12/22 07:11:59;;;;;;;60.67;35.80;;;;;;;;;;2097456;28;20486;-46
2022/12/22 07:13:17;;;;;;;59.55;30.38;;;;;;;;;;2097344;28;20052;-45
2022/12/22 07:14:18;;;;;;;59.53;35.58;;;;;;;;;;2097298;28;20056;-45
2022/12/22 07:15:19;;;;;;;52.75;33.40;;;;;;;;;;2097004;28;20055;-47
2022/12/22 07:16:21;;;;;;;61.47;35.70;;;;;;;;;;2097227;28;20087;-42
2022/12/22 07:17:22;;;;;;;59.75;35.10;;;;;;;;;;2097220;28;20170;-41
2022/12/22 07:18:23;;;;;;;59.22;34.15;;;;;;;;;;2097230;28;20052;-46
2022/12/22 07:19:24;;;;;;;61.15;36.53;;;;;;;;;;2097127;28;20060;-45
2022/12/22 07:20:25;;;;;;;60.65;33.13;;;;;;;;;;2097038;28;20072;-45
2022/12/22 07:21:26;;;;;;;69.65;37.15;;;;;;;;;;2097062;28;20048;-45
2022/12/22 07:22:27;;;;;;;66.13;36.30;;;;;;;;;;2098061;28;20056;-43
2022/12/22 07:23:31;;;;;;;70.82;38.28;;;;;;;;;;2098636;28;20045;-42
2022/12/22 07:24:33;;;;;;;69.70;37.90;;;;;;;;;;2098925;28;20401;-46
2022/12/22 07:25:34;;;;;;;75.03;38.30;;;;;;;;;;2098873;28;20047;-41
2022/12/22 07:26:35;;;;;;;71.90;39.90;;;;;;;;;;2098462;28;20164;-41
2022/12/22 07:27:36;;;;;;;76.30;41.28;;;;;;;;;;2098416;28;20056;-42
2022/12/22 07:28:39;;;;;;;70.40;39.88;;;;;;;;;;2098750;28;20049;-41
2022/12/22 07:29:40;;;;;;;72.35;39.88;;;;;;;;;;2098651;28;20497;-47
2022/12/22 07:30:42;;;;;;;71.18;40.58;;;;;;;;;;2098256;28;20435;-42
2022/12/22 07:31:43;;;;;;;69.60;39.17;;;;;;;;;;2098513;28;20056;-41
2022/12/22 07:32:44;;;;;;;69.53;38.08;;;;;;;;;;2098640;28;20080;-42
2022/12/22 07:33:45;;;;;;;69.65;39.20;;;;;;;;;;2098568;28;20052;-42
2022/12/22 07:34:46;;;;;;;71.18;38.75;;;;;;;;;;2098561;28;20544;-47
2022/12/22 07:35:47;;;;;;;71.15;38.85;;;;;;;;;;2098456;28;20072;-45
2022/12/22 07:36:48;;;;;;;74.28;38.35;;;;;;;;;;2098365;28;20049;-46
2022/12/22 07:37:49;;;;;;;66.97;37.75;;;;;;;;;;2098480;28;20044;-46
2022/12/22 07:38:50;;;;;;;65.00;36.33;;;;;;;;;;2098400;28;20075;-47
2022/12/22 07:39:51;;;;;;;62.15;32.35;;;;;;;;;;2098309;28;20048;-45
2022/12/22 07:40:56;;;;;;;67.10;36.57;;;;;;;;;;2098266;28;20103;-45
2022/12/22 07:43:25;;;;;;;67.43;37.15;;;;;;;;;;2098359;28;20106;-41
2022/12/22 07:44:26;;;;;;;65.70;38.10;;;;;;;;;;2098548;28;20052;-40
2022/12/22 07:45:27;;;;;;;62.65;36.67;;;;;;;;;;2098344;28;20052;-42
2022/12/22 07:46:29;;;;;;;66.00;38.17;;;;;;;;;;2098316;28;20052;-41
2022/12/22 07:47:30;;;;;;;64.38;35.65;;;;;;;;;;2098782;28;20054;-41
2022/12/22 07:51:15;;;;;;;64.47;37.38;;;;;;;;;;2098398;28;20056;-47
2022/12/22 07:52:16;;;;;;;57.63;36.03;;;;;;;;;;2098212;28;20508;-46
2022/12/22 07:53:17;;;;;;;60.43;35.17;;;;;;;;;;2098474;28;20127;-46
2022/12/22 07:54:18;;;;;;;57.78;34.65;;;;;;;;;;2098530;28;20059;-41
2022/12/22 07:55:19;;;;;;;59.65;35.53;;;;;;;;;;2098251;28;20063;-41
2022/12/22 07:56:21;;;;;;;54.65;32.33;;;;;;;;;;2098312;28;20044;-44
2022/12/22 07:57:25;;;;;;;52.83;33.90;;;;;;;;;;2098331;28;20447;-44
2022/12/22 07:58:26;;;;;;;58.00;33.17;;;;;;;;;;2098884;28;20056;-41
2022/12/22 07:59:27;;;;;;;59.08;34.28;;;;;;;;;;2098154;28;20044;-41
2022/12/22 08:00:28;;;;;;;56.00;32.97;;;;;;;;;;2098274;28;20053;-41
2022/12/22 08:01:29;;;;;;;56.50;33.20;;;;;;;;;;2098349;28;20056;-41
2022/12/22 08:02:30;;;;;;;51.40;32.33;;;;;;;;;;2098634;28;20136;-44
2022/12/22 08:03:39;;;;;;;56.65;33.30;;;;;;;;;;2098488;28;20045;-41
2022/12/22 08:04:40;;;;;;;58.07;33.97;;;;;;;;;;2098525;28;20378;-44
2022/12/22 08:05:41;;;;;;;56.28;34.33;;;;;;;;;;2098373;28;20080;-46
2022/12/22 08:06:43;;;;;;;62.90;34.53;;;;;;;;;;2098129;28;20052;-45
2022/12/22 08:07:44;;;;;;;54.22;32.10;;;;;;;;;;2098509;28;20178;-42
2022/12/22 08:08:45;;;;;;;59.28;32.95;;;;;;;;;;2098726;28;20048;-45
2022/12/22 08:09:46;;;;;;;55.63;33.00;;;;;;;;;;2098433;28;20049;-44
2022/12/22 08:10:47;;;;;;;53.75;32.35;;;;;;;;;;2098074;28;20485;-45
2022/12/22 08:11:49;;;;;;;51.63;32.42;;;;;;;;;;2098520;28;20135;-45
2022/12/22 08:12:51;;;;;;;56.97;33.88;;;;;;;;;;2098363;28;20436;-44
2022/12/22 08:13:51;;;;;;;54.13;33.17;;;;;;;;;;2098424;28;20048;-45
2022/12/22 08:15:01;;;;;;;59.35;34.45;;;;;;;;;;2098252;28;20052;-46
2022/12/22 08:16:03;;;;;;;59.72;36.13;;;;;;;;;;2098377;28;20055;-44
2022/12/22 08:17:05;;;;;;;60.25;35.42;;;;;;;;;;2098143;28;20048;-43
2022/12/22 08:18:06;;;;;;;62.15;35.17;;;;;;;;;;2098260;28;20053;-45
2022/12/22 08:19:07;;;;;;;58.22;34.28;;;;;;;;;;2098202;28;20185;-43
2022/12/22 08:20:09;;;;;;;60.65;35.03;;;;;;;;;;2098724;28;20048;-45
2022/12/22 08:21:10;;;;;;;56.90;34.63;;;;;;;;;;2098307;28;20059;-44
2022/12/22 08:22:11;;;;;;;57.70;34.30;;;;;;;;;;2098143;28;20152;-44
2022/12/22 08:23:12;;;;;;;57.83;35.67;;;;;;;;;;2098381;28;20052;-44
2022/12/22 08:24:13;;;;;;;57.05;34.88;;;;;;;;;;2098161;28;20082;-45
2022/12/22 08:25:14;;;;;;;57.30;36.03;;;;;;;;;;2098252;28;20215;-44
2022/12/22 08:26:16;;;;;;;56.77;32.47;;;;;;;;;;2098146;28;20087;-47
2022/12/22 08:27:22;;;;;;;56.75;33.50;;;;;;;;;;2098161;28;20041;-45
2022/12/22 08:28:30;;;;;;;59.60;34.53;;;;;;;;;;2098229;28;20049;-46
2022/12/22 08:29:34;;;;;;;54.65;31.77;;;;;;;;;;2097969;28;20048;-46
2022/12/22 08:30:34;;;;;;;56.05;33.25;;;;;;;;;;2098069;28;20044;-45
2022/12/22 08:31:36;;;;;;;53.83;32.63;;;;;;;;;;2097955;28;20053;-47
2022/12/22 08:32:37;;;;;;;58.00;33.58;;;;;;;;;;2098121;28;20867;-46
2022/12/22 08:33:38;;;;;;;59.00;34.00;;;;;;;;;;2098556;28;20052;-45
2022/12/22 08:34:39;;;;;;;52.17;32.75;;;;;;;;;;2097944;28;20044;-46
2022/12/22 08:35:41;;;;;;;56.17;32.77;;;;;;;;;;2098440;28;20048;-47
2022/12/22 08:36:44;;;;;;;55.30;34.08;;;;;;;;;;2098576;28;20056;-47
2022/12/22 08:37:45;;;;;;;59.38;33.15;;;;;;;;;;2098202;28;20493;-47
2022/12/22 08:38:47;;;;;;;55.60;34.95;;;;;;;;;;2098015;28;20079;-46
2022/12/22 08:39:52;;;;;;;60.65;34.75;;;;;;;;;;2098474;28;20048;-46
2022/12/22 08:40:53;;;;;;;55.03;33.17;;;;;;;;;;2097846;28;20511;-46
2022/12/22 08:41:55;;;;;;;56.73;34.23;;;;;;;;;;2098241;28;20068;-46
2022/12/22 08:42:58;;;;;;;53.75;32.60;;;;;;;;;;2098101;28;20059;-46
2022/12/22 08:44:00;;;;;;;56.58;33.83;;;;;;;;;;2098165;28;20052;-45
2022/12/22 08:45:01;;;;;;;54.78;33.15;;;;;;;;;;2097901;28;20049;-45
2022/12/22 08:46:02;;;;;;;62.40;34.75;;;;;;;;;;2098268;28;20041;-45
2022/12/22 08:47:03;;;;;;;58.35;36.22;;;;;;;;;;2097838;28;20398;-46
2022/12/22 08:48:05;;;;;;;53.63;32.95;;;;;;;;;;2098216;28;20048;-47
2022/12/22 08:49:06;;;;;;;57.90;34.15;;;;;;;;;;2097888;28;20481;-46
2022/12/22 08:50:08;;;;;;;54.22;31.88;;;;;;;;;;2098648;28;20047;-47
2022/12/22 08:51:08;;;;;;;55.50;32.97;;;;;;;;;;2097967;28;20048;-46
2022/12/22 08:52:10;;;;;;;53.47;33.97;;;;;;;;;;2098386;28;20040;-46
2022/12/22 08:53:18;;;;;;;51.33;33.47;;;;;;;;;;2097848;28;20098;-46
2022/12/22 08:54:39;;;;;;;55.35;33.88;;;;;;;;;;2097978;28;20060;-46
2022/12/22 08:55:40;;;;;;;58.80;32.78;;;;;;;;;;2097760;28;20500;-47
2022/12/22 08:56:42;;;;;;;53.28;34.05;;;;;;;;;;2097963;28;20045;-48
2022/12/22 08:57:43;;;;;;;53.35;33.13;;;;;;;;;;2098074;28;20049;-45
2022/12/22 08:58:44;;;;;;;55.30;32.17;;;;;;;;;;2098353;28;20059;-46
2022/12/22 08:59:46;;;;;;;55.25;32.47;;;;;;;;;;2097789;28;20052;-46
2022/12/22 09:00:47;;;;;;;54.78;34.20;;;;;;;;;;2097951;28;20117;-45
2022/12/22 09:01:49;;;;;;;58.07;34.03;;;;;;;;;;2097876;28;20055;-44
2022/12/22 09:02:50;;;;;;;56.70;34.08;;;;;;;;;;2097924;28;20080;-45
2022/12/22 09:03:53;;;;;;;58.70;34.88;;;;;;;;;;2098051;28;20047;-44
2022/12/22 09:04:54;;;;;;;55.10;32.92;;;;;;;;;;2097931;28;20052;-45
2022/12/22 09:05:59;;;;;;;57.05;33.10;;;;;;;;;;2097768;28;20075;-46
2022/12/22 09:07:01;;;;;;;54.58;33.85;;;;;;;;;;2097769;28;20036;-48
2022/12/22 09:08:02;;;;;;;50.75;33.35;;;;;;;;;;2098173;28;20056;-47
2022/12/22 09:09:05;;;;;;;54.50;32.43;;;;;;;;;;2098032;28;20519;-48
2022/12/22 09:10:07;;;;;;;52.67;32.50;;;;;;;;;;2097891;28;20057;-46
2022/12/22 09:11:07;;;;;;;49.50;31.20;;;;;;;;;;2097923;28;20447;-47
2022/12/22 09:12:09;;;;;;;51.47;30.73;;;;;;;;;;2098086;28;20048;-47
2022/12/22 09:13:10;;;;;;;49.97;33.03;;;;;;;;;;2098017;28;20047;-46
2022/12/22 09:14:11;;;;;;;50.03;31.90;;;;;;;;;;2098377;28;20551;-46
2022/12/22 09:15:13;;;;;;;50.15;31.10;;;;;;;;;;2098055;28;20049;-47
2022/12/22 09:16:14;;;;;;;;;;;;;;;;;;2098062;28;20040;-46
2022/12/22 09:17:15;;;;;;;50.25;30.35;;;;;;;;;;2098082;28;19955;-45
2022/12/22 09:18:16;;;;;;;55.10;32.95;;;;;;;;;;2097855;28;20045;-45
2022/12/22 09:19:17;;;;;;;55.73;29.83;;;;;;;;;;2097768;28;20557;-46
2022/12/22 09:20:18;;;;;;;53.60;31.73;;;;;;;;;;2097870;28;20087;-45
2022/12/22 09:21:19;;;;;;;49.90;30.23;;;;;;;;;;2098392;28;20380;-45
2022/12/22 09:22:21;;;;;;;49.50;30.48;;;;;;;;;;2097717;28;20531;-45
2022/12/22 09:23:29;;;;;;;47.08;29.55;;;;;;;;;;2097796;28;20056;-45
2022/12/22 09:24:30;;;;;;;52.33;31.20;;;;;;;;;;2098061;28;20055;-46
2022/12/22 09:25:33;;;;;;;49.85;30.83;;;;;;;;;;2097877;28;20049;-46
2022/12/22 09:26:34;;;;;;;55.15;32.45;;;;;;;;;;2097852;28;20045;-46
2022/12/22 09:27:35;;;;;;;60.03;33.03;;;;;;;;;;2097885;28;20051;-46
2022/12/22 09:28:36;;;;;;;56.45;32.75;;;;;;;;;;2097830;28;20696;-47
2022/12/22 09:29:39;;;;;;;57.65;33.03;;;;;;;;;;2097986;28;20045;-48
2022/12/22 09:30:41;;;;;;;57.05;32.85;;;;;;;;;;2097935;28;20048;-47
2022/12/22 09:31:42;;;;;;;52.50;32.03;;;;;;;;;;2097651;28;20413;-47
2022/12/22 09:32:43;;;;;;;60.17;33.15;;;;;;;;;;2098133;28;20098;-48
2022/12/22 09:33:44;;;;;;;53.03;33.25;;;;;;;;;;2097895;28;20049;-46
2022/12/22 09:34:45;;;;;;;55.80;32.80;;;;;;;;;;2098000;28;20052;-48
2022/12/22 09:35:46;;;;;;;52.50;32.70;;;;;;;;;;2097561;28;20052;-49
2022/12/22 09:36:47;;;;;;;54.53;32.00;;;;;;;;;;2097961;28;20510;-46
2022/12/22 09:37:49;;;;;;;54.60;32.95;;;;;;;;;;2097650;28;20045;-47
2022/12/22 09:38:50;;;;;;;53.00;31.90;;;;;;;;;;2097995;28;20094;-46